West Pike, Pennsylvania
Current Conditions -  °F | °C
As of 10:55 AM on Friday 31 Oct 2014 (Local Time) from KN38 Reporting Station
Overcast Overcast  
Wind Chill: 35°   Ceiling: 4400
Heat Index: 39°   Visibility: 10mi
Dew Point: 34°   Wind: 6mph
Humidity: 81%   Direction: 170°S
Pressure: 29.96"   Gusts: NA
Location:  41.6755°N, 77.7071°W
Report Text: KN38 311455Z AUTO 17005KT 10SM OVC044 04/01 A2996 RMK AO2
Loading
Personal Weather Stations






























Interactive Weather Map
Tropical Storm Tracking
New forecast layout! Learn more

10-Day Weather Forecast

Advertisements
Track Severe Weather on mobile